sensor_id;sensor_type;location;lat;lon;timestamp;P1;durP1;ratioP1;P2;durP2;ratioP2
63581;SDS011;49727;51.078;17.066;2023-08-30T00:04:49;3.13;;;2.30;;
63581;SDS011;49727;51.078;17.066;2023-08-30T00:19:49;3.40;;;1.85;;
63581;SDS011;49727;51.078;17.066;2023-08-30T00:34:50;2.22;;;1.67;;
63581;SDS011;49727;51.078;17.066;2023-08-30T00:49:52;2.13;;;1.53;;
63581;SDS011;49727;51.078;17.066;2023-08-30T01:04:53;2.38;;;1.58;;
63581;SDS011;49727;51.078;17.066;2023-08-30T01:19:55;3.38;;;2.38;;
63581;SDS011;49727;51.078;17.066;2023-08-30T01:35:00;3.67;;;2.30;;
63581;SDS011;49727;51.078;17.066;2023-08-30T01:50:02;3.70;;;2.37;;
63581;SDS011;49727;51.078;17.066;2023-08-30T02:05:03;3.70;;;2.43;;
63581;SDS011;49727;51.078;17.066;2023-08-30T02:20:05;3.00;;;2.00;;
63581;SDS011;49727;51.078;17.066;2023-08-30T02:35:06;4.00;;;2.30;;
63581;SDS011;49727;51.078;17.066;2023-08-30T02:50:07;5.63;;;2.92;;
63581;SDS011;49727;51.078;17.066;2023-08-30T03:05:07;3.03;;;2.10;;
63581;SDS011;49727;51.078;17.066;2023-08-30T03:20:08;2.60;;;1.85;;
63581;SDS011;49727;51.078;17.066;2023-08-30T03:35:08;3.63;;;2.38;;
63581;SDS011;49727;51.078;17.066;2023-08-30T03:50:08;3.72;;;2.40;;
63581;SDS011;49727;51.078;17.066;2023-08-30T04:05:09;5.40;;;3.87;;
63581;SDS011;49727;51.078;17.066;2023-08-30T04:20:10;5.10;;;2.72;;
63581;SDS011;49727;51.078;17.066;2023-08-30T04:35:10;4.07;;;1.92;;
63581;SDS011;49727;51.078;17.066;2023-08-30T04:50:11;3.70;;;2.15;;
63581;SDS011;49727;51.078;17.066;2023-08-30T05:05:11;3.17;;;2.33;;
63581;SDS011;49727;51.078;17.066;2023-08-30T05:20:12;3.40;;;2.40;;
63581;SDS011;49727;51.078;17.066;2023-08-30T05:35:13;2.75;;;1.80;;
63581;SDS011;49727;51.078;17.066;2023-08-30T05:50:13;4.10;;;1.50;;
63581;SDS011;49727;51.078;17.066;2023-08-30T06:05:13;3.85;;;2.08;;
63581;SDS011;49727;51.078;17.066;2023-08-30T06:20:14;4.05;;;2.08;;
63581;SDS011;49727;51.078;17.066;2023-08-30T06:35:14;2.35;;;1.45;;
63581;SDS011;49727;51.078;17.066;2023-08-30T06:50:15;1.77;;;1.30;;
63581;SDS011;49727;51.078;17.066;2023-08-30T07:05:15;4.65;;;1.20;;
63581;SDS011;49727;51.078;17.066;2023-08-30T07:20:15;2.00;;;1.00;;
63581;SDS011;49727;51.078;17.066;2023-08-30T07:35:16;3.58;;;0.70;;
63581;SDS011;49727;51.078;17.066;2023-08-30T07:50:16;1.15;;;0.82;;
63581;SDS011;49727;51.078;17.066;2023-08-30T08:05:16;4.38;;;0.82;;
63581;SDS011;49727;51.078;17.066;2023-08-30T08:20:17;1.38;;;0.70;;
63581;SDS011;49727;51.078;17.066;2023-08-30T08:35:17;2.10;;;0.98;;
63581;SDS011;49727;51.078;17.066;2023-08-30T08:50:17;0.95;;;0.70;;
63581;SDS011;49727;51.078;17.066;2023-08-30T09:05:18;0.75;;;0.70;;
63581;SDS011;49727;51.078;17.066;2023-08-30T09:20:20;0.87;;;0.80;;
63581;SDS011;49727;51.078;17.066;2023-08-30T09:35:20;3.63;;;1.10;;
63581;SDS011;49727;51.078;17.066;2023-08-30T09:50:21;1.30;;;0.90;;
63581;SDS011;49727;51.078;17.066;2023-08-30T10:20:23;3.03;;;0.90;;
63581;SDS011;49727;51.078;17.066;2023-08-30T10:35:24;3.75;;;1.50;;
63581;SDS011;49727;51.078;17.066;2023-08-30T10:50:29;0.90;;;0.70;;
63581;SDS011;49727;51.078;17.066;2023-08-30T11:05:30;1.90;;;0.97;;
63581;SDS011;49727;51.078;17.066;2023-08-30T11:20:31;5.03;;;3.03;;
63581;SDS011;49727;51.078;17.066;2023-08-30T11:35:31;8.50;;;3.20;;
63581;SDS011;49727;51.078;17.066;2023-08-30T11:50:32;3.07;;;2.40;;
63581;SDS011;49727;51.078;17.066;2023-08-30T12:05:33;3.00;;;2.30;;
63581;SDS011;49727;51.078;17.066;2023-08-30T12:20:35;3.10;;;2.13;;
63581;SDS011;49727;51.078;17.066;2023-08-30T12:35:35;5.43;;;3.90;;
63581;SDS011;49727;51.078;17.066;2023-08-30T12:50:36;7.83;;;3.43;;
63581;SDS011;49727;51.078;17.066;2023-08-30T13:05:37;2.20;;;2.00;;
63581;SDS011;49727;51.078;17.066;2023-08-30T13:20:38;2.30;;;1.40;;
63581;SDS011;49727;51.078;17.066;2023-08-30T13:35:39;1.67;;;1.10;;
63581;SDS011;49727;51.078;17.066;2023-08-30T13:50:42;2.93;;;0.87;;
63581;SDS011;49727;51.078;17.066;2023-08-30T14:05:43;1.60;;;0.80;;
63581;SDS011;49727;51.078;17.066;2023-08-30T14:20:43;2.50;;;0.90;;
63581;SDS011;49727;51.078;17.066;2023-08-30T14:35:44;2.63;;;0.90;;
63581;SDS011;49727;51.078;17.066;2023-08-30T14:50:49;1.40;;;0.73;;
63581;SDS011;49727;51.078;17.066;2023-08-30T15:05:54;1.23;;;0.70;;
63581;SDS011;49727;51.078;17.066;2023-08-30T15:20:55;2.17;;;1.30;;
63581;SDS011;49727;51.078;17.066;2023-08-30T15:35:59;2.65;;;1.70;;
63581;SDS011;49727;51.078;17.066;2023-08-30T15:51:00;5.10;;;2.27;;
63581;SDS011;49727;51.078;17.066;2023-08-30T16:06:01;3.42;;;1.95;;
63581;SDS011;49727;51.078;17.066;2023-08-30T16:21:01;5.57;;;2.20;;
63581;SDS011;49727;51.078;17.066;2023-08-30T16:36:02;4.10;;;2.47;;
63581;SDS011;49727;51.078;17.066;2023-08-30T16:51:03;2.60;;;1.80;;
63581;SDS011;49727;51.078;17.066;2023-08-30T17:21:05;5.40;;;1.63;;
63581;SDS011;49727;51.078;17.066;2023-08-30T17:36:09;2.43;;;1.20;;
63581;SDS011;49727;51.078;17.066;2023-08-30T17:51:10;3.10;;;1.10;;
63581;SDS011;49727;51.078;17.066;2023-08-30T18:06:10;2.17;;;1.40;;
63581;SDS011;49727;51.078;17.066;2023-08-30T18:21:14;2.40;;;1.53;;
63581;SDS011;49727;51.078;17.066;2023-08-30T18:36:15;3.90;;;2.00;;
63581;SDS011;49727;51.078;17.066;2023-08-30T18:51:15;2.78;;;1.75;;
63581;SDS011;49727;51.078;17.066;2023-08-30T19:06:18;5.57;;;2.70;;
63581;SDS011;49727;51.078;17.066;2023-08-30T19:21:19;4.50;;;2.90;;
63581;SDS011;49727;51.078;17.066;2023-08-30T19:36:22;5.17;;;2.73;;
63581;SDS011;49727;51.078;17.066;2023-08-30T19:51:23;5.10;;;2.93;;
63581;SDS011;49727;51.078;17.066;2023-08-30T20:06:24;4.00;;;2.73;;
63581;SDS011;49727;51.078;17.066;2023-08-30T20:21:24;4.53;;;2.60;;
63581;SDS011;49727;51.078;17.066;2023-08-30T20:36:25;4.15;;;2.65;;
63581;SDS011;49727;51.078;17.066;2023-08-30T20:51:25;5.95;;;3.45;;
63581;SDS011;49727;51.078;17.066;2023-08-30T21:06:25;5.07;;;2.85;;
63581;SDS011;49727;51.078;17.066;2023-08-30T21:21:27;7.50;;;4.50;;
63581;SDS011;49727;51.078;17.066;2023-08-30T21:36:27;8.55;;;3.50;;
63581;SDS011;49727;51.078;17.066;2023-08-30T21:51:28;6.80;;;4.38;;
63581;SDS011;49727;51.078;17.066;2023-08-30T22:06:34;6.73;;;4.23;;
63581;SDS011;49727;51.078;17.066;2023-08-30T22:21:35;8.20;;;4.40;;
63581;SDS011;49727;51.078;17.066;2023-08-30T22:36:36;8.40;;;4.88;;
63581;SDS011;49727;51.078;17.066;2023-08-30T22:51:36;7.68;;;4.63;;
63581;SDS011;49727;51.078;17.066;2023-08-30T23:06:37;7.38;;;4.85;;
63581;SDS011;49727;51.078;17.066;2023-08-30T23:21:37;9.38;;;4.55;;
63581;SDS011;49727;51.078;17.066;2023-08-30T23:36:37;8.35;;;4.03;;
63581;SDS011;49727;51.078;17.066;2023-08-30T23:51:39;7.97;;;4.40;;
